sensor_id;sensor_type;location;lat;lon;timestamp;P1;durP1;ratioP1;P2;durP2;ratioP2
4452;SDS011;2239;48.152;11.584;2023-03-04T00:01:11;10.97;;;5.10;;
4452;SDS011;2239;48.152;11.584;2023-03-04T00:03:36;13.13;;;5.43;;
4452;SDS011;2239;48.152;11.584;2023-03-04T00:06:02;20.83;;;6.70;;
4452;SDS011;2239;48.152;11.584;2023-03-04T00:08:28;7.57;;;4.10;;
4452;SDS011;2239;48.152;11.584;2023-03-04T00:10:53;8.50;;;4.33;;
4452;SDS011;2239;48.152;11.584;2023-03-04T00:13:19;13.67;;;5.20;;
4452;SDS011;2239;48.152;11.584;2023-03-04T00:15:46;9.63;;;4.55;;
4452;SDS011;2239;48.152;11.584;2023-03-04T00:18:12;8.40;;;3.28;;
4452;SDS011;2239;48.152;11.584;2023-03-04T00:20:38;14.13;;;4.40;;
4452;SDS011;2239;48.152;11.584;2023-03-04T00:23:03;8.43;;;3.53;;
4452;SDS011;2239;48.152;11.584;2023-03-04T00:25:29;10.50;;;6.17;;
4452;SDS011;2239;48.152;11.584;2023-03-04T00:27:55;6.47;;;3.63;;
4452;SDS011;2239;48.152;11.584;2023-03-04T00:30:22;12.13;;;3.57;;
4452;SDS011;2239;48.152;11.584;2023-03-04T00:32:48;10.13;;;4.67;;
4452;SDS011;2239;48.152;11.584;2023-03-04T00:35:13;10.10;;;4.40;;
4452;SDS011;2239;48.152;11.584;2023-03-04T00:37:39;11.20;;;4.23;;
4452;SDS011;2239;48.152;11.584;2023-03-04T00:40:05;10.07;;;5.03;;
4452;SDS011;2239;48.152;11.584;2023-03-04T00:42:31;8.48;;;4.97;;
4452;SDS011;2239;48.152;11.584;2023-03-04T00:44:57;7.80;;;3.20;;
4452;SDS011;2239;48.152;11.584;2023-03-04T00:47:22;5.53;;;3.30;;
4452;SDS011;2239;48.152;11.584;2023-03-04T00:49:48;18.73;;;4.17;;
4452;SDS011;2239;48.152;11.584;2023-03-04T00:52:13;6.47;;;4.30;;
4452;SDS011;2239;48.152;11.584;2023-03-04T00:54:39;10.80;;;4.20;;
4452;SDS011;2239;48.152;11.584;2023-03-04T00:57:04;11.90;;;4.87;;
4452;SDS011;2239;48.152;11.584;2023-03-04T00:59:30;7.63;;;3.93;;
4452;SDS011;2239;48.152;11.584;2023-03-04T01:01:56;11.00;;;5.97;;
4452;SDS011;2239;48.152;11.584;2023-03-04T01:04:21;5.33;;;3.00;;
4452;SDS011;2239;48.152;11.584;2023-03-04T01:06:47;13.27;;;3.53;;
4452;SDS011;2239;48.152;11.584;2023-03-04T01:09:12;6.37;;;3.27;;
4452;SDS011;2239;48.152;11.584;2023-03-04T01:11:38;9.30;;;4.23;;
4452;SDS011;2239;48.152;11.584;2023-03-04T01:14:03;12.87;;;3.53;;
4452;SDS011;2239;48.152;11.584;2023-03-04T01:16:29;13.87;;;3.87;;
4452;SDS011;2239;48.152;11.584;2023-03-04T01:18:54;9.83;;;4.13;;
4452;SDS011;2239;48.152;11.584;2023-03-04T01:21:20;7.33;;;2.90;;
4452;SDS011;2239;48.152;11.584;2023-03-04T01:23:46;6.50;;;3.20;;
4452;SDS011;2239;48.152;11.584;2023-03-04T01:26:11;20.83;;;5.70;;
4452;SDS011;2239;48.152;11.584;2023-03-04T01:28:37;8.13;;;5.23;;
4452;SDS011;2239;48.152;11.584;2023-03-04T01:31:02;9.80;;;5.10;;
4452;SDS011;2239;48.152;11.584;2023-03-04T01:33:28;11.20;;;3.90;;
4452;SDS011;2239;48.152;11.584;2023-03-04T01:35:54;10.13;;;4.45;;
4452;SDS011;2239;48.152;11.584;2023-03-04T01:38:20;14.55;;;4.07;;
4452;SDS011;2239;48.152;11.584;2023-03-04T01:40:46;6.40;;;4.33;;
4452;SDS011;2239;48.152;11.584;2023-03-04T01:43:15;10.00;;;3.67;;
4452;SDS011;2239;48.152;11.584;2023-03-04T01:45:47;12.23;;;5.30;;
4452;SDS011;2239;48.152;11.584;2023-03-04T01:48:15;16.10;;;3.22;;
4452;SDS011;2239;48.152;11.584;2023-03-04T01:50:43;9.38;;;2.95;;
4452;SDS011;2239;48.152;11.584;2023-03-04T01:53:14;11.43;;;4.60;;
4452;SDS011;2239;48.152;11.584;2023-03-04T01:55:45;6.45;;;4.05;;
4452;SDS011;2239;48.152;11.584;2023-03-04T01:58:11;9.73;;;4.90;;
4452;SDS011;2239;48.152;11.584;2023-03-04T02:00:37;20.70;;;5.50;;
4452;SDS011;2239;48.152;11.584;2023-03-04T02:03:04;4.67;;;3.70;;
4452;SDS011;2239;48.152;11.584;2023-03-04T02:05:36;7.40;;;3.15;;
4452;SDS011;2239;48.152;11.584;2023-03-04T02:08:04;8.25;;;4.07;;
4452;SDS011;2239;48.152;11.584;2023-03-04T02:10:31;6.88;;;3.30;;
4452;SDS011;2239;48.152;11.584;2023-03-04T02:12:58;12.02;;;5.22;;
4452;SDS011;2239;48.152;11.584;2023-03-04T02:15:24;5.93;;;2.83;;
4452;SDS011;2239;48.152;11.584;2023-03-04T02:17:50;9.90;;;3.50;;
4452;SDS011;2239;48.152;11.584;2023-03-04T02:26:07;8.20;;;3.72;;
4452;SDS011;2239;48.152;11.584;2023-03-04T02:28:39;18.60;;;5.15;;
4452;SDS011;2239;48.152;11.584;2023-03-04T02:31:05;15.77;;;5.45;;
4452;SDS011;2239;48.152;11.584;2023-03-04T02:33:30;4.40;;;3.57;;
4452;SDS011;2239;48.152;11.584;2023-03-04T02:35:57;10.55;;;4.55;;
4452;SDS011;2239;48.152;11.584;2023-03-04T02:38:23;5.85;;;3.85;;
4452;SDS011;2239;48.152;11.584;2023-03-04T02:40:50;24.93;;;6.20;;
4452;SDS011;2239;48.152;11.584;2023-03-04T02:43:18;8.52;;;4.30;;
4452;SDS011;2239;48.152;11.584;2023-03-04T02:45:46;6.22;;;3.78;;
4452;SDS011;2239;48.152;11.584;2023-03-04T02:48:14;8.85;;;2.63;;
4452;SDS011;2239;48.152;11.584;2023-03-04T02:50:43;7.10;;;3.75;;
4452;SDS011;2239;48.152;11.584;2023-03-04T02:53:11;3.92;;;2.58;;
4452;SDS011;2239;48.152;11.584;2023-03-04T02:55:37;8.17;;;4.93;;
4452;SDS011;2239;48.152;11.584;2023-03-04T02:58:03;9.50;;;3.50;;
4452;SDS011;2239;48.152;11.584;2023-03-04T03:00:28;9.37;;;3.20;;
4452;SDS011;2239;48.152;11.584;2023-03-04T03:02:54;10.83;;;3.73;;
4452;SDS011;2239;48.152;11.584;2023-03-04T03:05:24;9.32;;;5.22;;
4452;SDS011;2239;48.152;11.584;2023-03-04T03:07:51;10.63;;;5.45;;
4452;SDS011;2239;48.152;11.584;2023-03-04T03:10:17;5.13;;;2.57;;
4452;SDS011;2239;48.152;11.584;2023-03-04T03:12:43;14.47;;;4.73;;
4452;SDS011;2239;48.152;11.584;2023-03-04T03:15:08;5.53;;;4.23;;
4452;SDS011;2239;48.152;11.584;2023-03-04T03:17:34;7.05;;;5.50;;
4452;SDS011;2239;48.152;11.584;2023-03-04T03:20:00;6.00;;;3.33;;
4452;SDS011;2239;48.152;11.584;2023-03-04T03:22:26;6.13;;;4.27;;
4452;SDS011;2239;48.152;11.584;2023-03-04T03:24:51;14.63;;;6.20;;
4452;SDS011;2239;48.152;11.584;2023-03-04T03:27:17;6.87;;;3.90;;
4452;SDS011;2239;48.152;11.584;2023-03-04T03:29:42;16.10;;;3.50;;
4452;SDS011;2239;48.152;11.584;2023-03-04T03:32:08;6.03;;;2.53;;
4452;SDS011;2239;48.152;11.584;2023-03-04T03:34:33;17.10;;;5.30;;
4452;SDS011;2239;48.152;11.584;2023-03-04T03:36:59;9.33;;;4.80;;
4452;SDS011;2239;48.152;11.584;2023-03-04T03:39:24;10.20;;;4.87;;
4452;SDS011;2239;48.152;11.584;2023-03-04T03:41:50;9.57;;;3.80;;
4452;SDS011;2239;48.152;11.584;2023-03-04T03:44:15;9.60;;;2.63;;
4452;SDS011;2239;48.152;11.584;2023-03-04T03:46:41;5.83;;;3.97;;
4452;SDS011;2239;48.152;11.584;2023-03-04T03:49:06;14.60;;;5.30;;
4452;SDS011;2239;48.152;11.584;2023-03-04T03:51:32;4.90;;;2.63;;
4452;SDS011;2239;48.152;11.584;2023-03-04T03:53:57;5.70;;;3.93;;
4452;SDS011;2239;48.152;11.584;2023-03-04T03:56:23;10.67;;;4.50;;
4452;SDS011;2239;48.152;11.584;2023-03-04T03:58:48;5.83;;;3.27;;
4452;SDS011;2239;48.152;11.584;2023-03-04T04:01:14;7.90;;;3.63;;
4452;SDS011;2239;48.152;11.584;2023-03-04T04:03:40;12.23;;;3.50;;
4452;SDS011;2239;48.152;11.584;2023-03-04T04:06:05;14.33;;;6.47;;
4452;SDS011;2239;48.152;11.584;2023-03-04T04:08:31;7.20;;;2.90;;
4452;SDS011;2239;48.152;11.584;2023-03-04T04:10:57;20.23;;;6.07;;
4452;SDS011;2239;48.152;11.584;2023-03-04T04:13:23;8.90;;;4.00;;
4452;SDS011;2239;48.152;11.584;2023-03-04T04:15:50;8.63;;;3.80;;
4452;SDS011;2239;48.152;11.584;2023-03-04T04:18:16;9.73;;;4.20;;
4452;SDS011;2239;48.152;11.584;2023-03-04T04:20:41;3.80;;;2.50;;
4452;SDS011;2239;48.152;11.584;2023-03-04T04:23:07;5.67;;;3.50;;
4452;SDS011;2239;48.152;11.584;2023-03-04T04:25:33;9.77;;;3.20;;
4452;SDS011;2239;48.152;11.584;2023-03-04T04:27:59;9.90;;;4.67;;
4452;SDS011;2239;48.152;11.584;2023-03-04T04:30:24;6.10;;;2.13;;
4452;SDS011;2239;48.152;11.584;2023-03-04T04:32:50;5.53;;;3.63;;
4452;SDS011;2239;48.152;11.584;2023-03-04T04:35:16;14.10;;;5.17;;
4452;SDS011;2239;48.152;11.584;2023-03-04T04:37:41;6.23;;;3.07;;
4452;SDS011;2239;48.152;11.584;2023-03-04T04:40:07;7.93;;;3.60;;
4452;SDS011;2239;48.152;11.584;2023-03-04T04:42:34;10.13;;;4.22;;
4452;SDS011;2239;48.152;11.584;2023-03-04T04:45:00;3.13;;;2.87;;
4452;SDS011;2239;48.152;11.584;2023-03-04T04:47:26;13.20;;;4.87;;
4452;SDS011;2239;48.152;11.584;2023-03-04T04:49:51;4.47;;;3.10;;
4452;SDS011;2239;48.152;11.584;2023-03-04T04:52:17;8.40;;;2.43;;
4452;SDS011;2239;48.152;11.584;2023-03-04T04:54:42;7.13;;;3.97;;
4452;SDS011;2239;48.152;11.584;2023-03-04T04:57:08;11.87;;;5.00;;
4452;SDS011;2239;48.152;11.584;2023-03-04T04:59:34;8.67;;;4.07;;
4452;SDS011;2239;48.152;11.584;2023-03-04T05:01:59;8.50;;;4.67;;
4452;SDS011;2239;48.152;11.584;2023-03-04T05:04:25;17.97;;;2.70;;
4452;SDS011;2239;48.152;11.584;2023-03-04T05:06:51;6.83;;;4.93;;
4452;SDS011;2239;48.152;11.584;2023-03-04T05:09:16;11.30;;;5.83;;
4452;SDS011;2239;48.152;11.584;2023-03-04T05:11:43;7.25;;;4.00;;
4452;SDS011;2239;48.152;11.584;2023-03-04T05:14:08;10.00;;;5.90;;
4452;SDS011;2239;48.152;11.584;2023-03-04T05:16:34;5.60;;;3.07;;
4452;SDS011;2239;48.152;11.584;2023-03-04T05:18:59;6.57;;;3.67;;
4452;SDS011;2239;48.152;11.584;2023-03-04T05:21:25;11.17;;;3.70;;
4452;SDS011;2239;48.152;11.584;2023-03-04T05:23:50;8.87;;;3.97;;
4452;SDS011;2239;48.152;11.584;2023-03-04T05:26:16;7.00;;;3.70;;
4452;SDS011;2239;48.152;11.584;2023-03-04T05:28:43;6.35;;;4.65;;
4452;SDS011;2239;48.152;11.584;2023-03-04T05:31:09;8.15;;;2.90;;
4452;SDS011;2239;48.152;11.584;2023-03-04T05:33:35;6.22;;;3.35;;
4452;SDS011;2239;48.152;11.584;2023-03-04T05:36:02;15.32;;;4.50;;
4452;SDS011;2239;48.152;11.584;2023-03-04T05:38:29;13.98;;;4.35;;
4452;SDS011;2239;48.152;11.584;2023-03-04T05:40:59;7.93;;;3.90;;
4452;SDS011;2239;48.152;11.584;2023-03-04T05:43:26;7.60;;;3.85;;
4452;SDS011;2239;48.152;11.584;2023-03-04T05:45:53;4.68;;;3.20;;
4452;SDS011;2239;48.152;11.584;2023-03-04T05:48:19;3.80;;;3.35;;
4452;SDS011;2239;48.152;11.584;2023-03-04T05:50:45;13.20;;;3.72;;
4452;SDS011;2239;48.152;11.584;2023-03-04T05:53:11;4.40;;;2.43;;
4452;SDS011;2239;48.152;11.584;2023-03-04T05:55:36;7.83;;;3.80;;
4452;SDS011;2239;48.152;11.584;2023-03-04T05:58:02;5.13;;;3.63;;
4452;SDS011;2239;48.152;11.584;2023-03-04T06:00:28;3.23;;;2.00;;
4452;SDS011;2239;48.152;11.584;2023-03-04T06:02:53;7.40;;;3.50;;
4452;SDS011;2239;48.152;11.584;2023-03-04T06:05:19;5.53;;;3.07;;
4452;SDS011;2239;48.152;11.584;2023-03-04T06:07:45;10.02;;;3.72;;
4452;SDS011;2239;48.152;11.584;2023-03-04T06:10:13;5.03;;;3.65;;
4452;SDS011;2239;48.152;11.584;2023-03-04T06:12:40;4.57;;;3.00;;
4452;SDS011;2239;48.152;11.584;2023-03-04T06:15:05;15.07;;;5.57;;
4452;SDS011;2239;48.152;11.584;2023-03-04T06:17:34;5.55;;;2.63;;
4452;SDS011;2239;48.152;11.584;2023-03-04T06:19:59;13.63;;;3.33;;
4452;SDS011;2239;48.152;11.584;2023-03-04T06:22:25;7.50;;;3.00;;
4452;SDS011;2239;48.152;11.584;2023-03-04T06:24:50;8.27;;;3.10;;
4452;SDS011;2239;48.152;11.584;2023-03-04T06:27:16;10.07;;;3.67;;
4452;SDS011;2239;48.152;11.584;2023-03-04T06:29:42;7.80;;;3.10;;
4452;SDS011;2239;48.152;11.584;2023-03-04T06:32:07;6.87;;;3.90;;
4452;SDS011;2239;48.152;11.584;2023-03-04T06:34:33;5.83;;;2.80;;
4452;SDS011;2239;48.152;11.584;2023-03-04T06:36:58;3.90;;;2.30;;
4452;SDS011;2239;48.152;11.584;2023-03-04T06:39:24;3.23;;;2.93;;
4452;SDS011;2239;48.152;11.584;2023-03-04T06:41:50;3.87;;;2.40;;
4452;SDS011;2239;48.152;11.584;2023-03-04T06:44:16;8.63;;;3.00;;
4452;SDS011;2239;48.152;11.584;2023-03-04T06:46:42;5.90;;;2.97;;
4452;SDS011;2239;48.152;11.584;2023-03-04T06:49:07;8.20;;;3.57;;
4452;SDS011;2239;48.152;11.584;2023-03-04T06:51:33;12.33;;;5.87;;
4452;SDS011;2239;48.152;11.584;2023-03-04T06:53:59;5.70;;;3.27;;
4452;SDS011;2239;48.152;11.584;2023-03-04T06:56:25;9.10;;;3.50;;
4452;SDS011;2239;48.152;11.584;2023-03-04T06:58:50;11.80;;;3.37;;
4452;SDS011;2239;48.152;11.584;2023-03-04T07:03:43;10.40;;;3.40;;
4452;SDS011;2239;48.152;11.584;2023-03-04T07:06:10;8.82;;;3.70;;
4452;SDS011;2239;48.152;11.584;2023-03-04T07:08:37;11.02;;;4.68;;
4452;SDS011;2239;48.152;11.584;2023-03-04T07:11:02;18.23;;;3.27;;
4452;SDS011;2239;48.152;11.584;2023-03-04T07:13:28;6.70;;;3.90;;
4452;SDS011;2239;48.152;11.584;2023-03-04T07:15:54;9.10;;;4.10;;
4452;SDS011;2239;48.152;11.584;2023-03-04T07:18:19;10.90;;;4.10;;
4452;SDS011;2239;48.152;11.584;2023-03-04T07:20:45;12.33;;;3.90;;
4452;SDS011;2239;48.152;11.584;2023-03-04T07:23:10;8.77;;;4.47;;
4452;SDS011;2239;48.152;11.584;2023-03-04T07:25:36;15.17;;;5.73;;
4452;SDS011;2239;48.152;11.584;2023-03-04T07:28:02;13.57;;;4.13;;
4452;SDS011;2239;48.152;11.584;2023-03-04T07:30:27;10.73;;;4.10;;
4452;SDS011;2239;48.152;11.584;2023-03-04T07:32:55;20.63;;;5.93;;
4452;SDS011;2239;48.152;11.584;2023-03-04T07:35:22;6.53;;;3.88;;
4452;SDS011;2239;48.152;11.584;2023-03-04T07:37:47;12.70;;;3.97;;
4452;SDS011;2239;48.152;11.584;2023-03-04T07:40:13;8.47;;;3.60;;
4452;SDS011;2239;48.152;11.584;2023-03-04T07:42:42;15.20;;;6.35;;
4452;SDS011;2239;48.152;11.584;2023-03-04T07:45:08;21.27;;;3.90;;
4452;SDS011;2239;48.152;11.584;2023-03-04T07:47:34;12.20;;;5.30;;
4452;SDS011;2239;48.152;11.584;2023-03-04T07:50:01;10.13;;;5.18;;
4452;SDS011;2239;48.152;11.584;2023-03-04T07:52:27;11.90;;;5.60;;
4452;SDS011;2239;48.152;11.584;2023-03-04T07:54:53;13.13;;;4.57;;
4452;SDS011;2239;48.152;11.584;2023-03-04T07:57:18;8.63;;;4.93;;
4452;SDS011;2239;48.152;11.584;2023-03-04T07:59:44;12.10;;;5.37;;
4452;SDS011;2239;48.152;11.584;2023-03-04T08:02:09;13.73;;;4.37;;
4452;SDS011;2239;48.152;11.584;2023-03-04T08:04:35;13.23;;;4.03;;
4452;SDS011;2239;48.152;11.584;2023-03-04T08:07:00;11.30;;;6.53;;
4452;SDS011;2239;48.152;11.584;2023-03-04T08:09:26;15.50;;;5.50;;
4452;SDS011;2239;48.152;11.584;2023-03-04T08:11:52;13.10;;;4.50;;
4452;SDS011;2239;48.152;11.584;2023-03-04T08:14:18;11.77;;;5.07;;
4452;SDS011;2239;48.152;11.584;2023-03-04T08:16:43;20.73;;;5.27;;
4452;SDS011;2239;48.152;11.584;2023-03-04T08:19:09;14.10;;;5.70;;
4452;SDS011;2239;48.152;11.584;2023-03-04T08:21:36;15.98;;;5.72;;
4452;SDS011;2239;48.152;11.584;2023-03-04T08:24:02;8.00;;;3.47;;
4452;SDS011;2239;48.152;11.584;2023-03-04T08:26:33;15.63;;;5.43;;
4452;SDS011;2239;48.152;11.584;2023-03-04T08:29:03;18.50;;;5.13;;
4452;SDS011;2239;48.152;11.584;2023-03-04T08:31:30;11.47;;;6.00;;
4452;SDS011;2239;48.152;11.584;2023-03-04T08:33:56;16.03;;;5.60;;
4452;SDS011;2239;48.152;11.584;2023-03-04T08:36:21;9.70;;;4.57;;
4452;SDS011;2239;48.152;11.584;2023-03-04T08:38:47;12.73;;;5.37;;
4452;SDS011;2239;48.152;11.584;2023-03-04T08:41:13;11.47;;;4.07;;
4452;SDS011;2239;48.152;11.584;2023-03-04T08:43:39;8.77;;;3.93;;
4452;SDS011;2239;48.152;11.584;2023-03-04T08:46:05;12.43;;;5.70;;
4452;SDS011;2239;48.152;11.584;2023-03-04T08:48:31;17.73;;;5.80;;
4452;SDS011;2239;48.152;11.584;2023-03-04T08:50:57;13.47;;;5.10;;
4452;SDS011;2239;48.152;11.584;2023-03-04T08:53:23;11.77;;;5.23;;
4452;SDS011;2239;48.152;11.584;2023-03-04T08:55:49;19.47;;;6.30;;
4452;SDS011;2239;48.152;11.584;2023-03-04T08:58:16;14.27;;;5.77;;
4452;SDS011;2239;48.152;11.584;2023-03-04T09:00:43;15.77;;;5.93;;
4452;SDS011;2239;48.152;11.584;2023-03-04T09:03:12;16.20;;;4.93;;
4452;SDS011;2239;48.152;11.584;2023-03-04T09:05:38;8.13;;;4.50;;
4452;SDS011;2239;48.152;11.584;2023-03-04T09:08:04;7.90;;;4.10;;
4452;SDS011;2239;48.152;11.584;2023-03-04T09:10:30;20.77;;;5.97;;
4452;SDS011;2239;48.152;11.584;2023-03-04T09:12:55;19.40;;;5.47;;
4452;SDS011;2239;48.152;11.584;2023-03-04T09:15:22;14.07;;;6.33;;
4452;SDS011;2239;48.152;11.584;2023-03-04T09:17:47;16.27;;;6.40;;
4452;SDS011;2239;48.152;11.584;2023-03-04T09:20:13;17.00;;;5.53;;
4452;SDS011;2239;48.152;11.584;2023-03-04T09:22:39;13.87;;;6.43;;
4452;SDS011;2239;48.152;11.584;2023-03-04T09:25:06;21.27;;;6.77;;
4452;SDS011;2239;48.152;11.584;2023-03-04T09:27:32;11.27;;;5.67;;
4452;SDS011;2239;48.152;11.584;2023-03-04T09:29:57;12.03;;;4.97;;
4452;SDS011;2239;48.152;11.584;2023-03-04T09:32:23;16.17;;;5.50;;
4452;SDS011;2239;48.152;11.584;2023-03-04T09:34:49;21.40;;;6.23;;
4452;SDS011;2239;48.152;11.584;2023-03-04T09:37:15;15.67;;;5.70;;
4452;SDS011;2239;48.152;11.584;2023-03-04T09:39:40;15.33;;;5.77;;
4452;SDS011;2239;48.152;11.584;2023-03-04T09:42:06;12.93;;;5.40;;
4452;SDS011;2239;48.152;11.584;2023-03-04T09:44:35;16.33;;;4.97;;
4452;SDS011;2239;48.152;11.584;2023-03-04T09:47:05;14.20;;;5.27;;
4452;SDS011;2239;48.152;11.584;2023-03-04T09:49:43;18.73;;;5.90;;
4452;SDS011;2239;48.152;11.584;2023-03-04T09:54:57;13.47;;;6.30;;
4452;SDS011;2239;48.152;11.584;2023-03-04T10:00:02;23.13;;;6.27;;
4452;SDS011;2239;48.152;11.584;2023-03-04T10:02:40;15.70;;;5.83;;
4452;SDS011;2239;48.152;11.584;2023-03-04T10:05:22;20.63;;;6.57;;
4452;SDS011;2239;48.152;11.584;2023-03-04T10:07:55;18.23;;;5.97;;
4452;SDS011;2239;48.152;11.584;2023-03-04T10:10:47;15.87;;;5.90;;
4452;SDS011;2239;48.152;11.584;2023-03-04T10:13:15;15.83;;;6.03;;
4452;SDS011;2239;48.152;11.584;2023-03-04T10:15:47;17.57;;;5.10;;
4452;SDS011;2239;48.152;11.584;2023-03-04T10:18:21;12.17;;;5.00;;
4452;SDS011;2239;48.152;11.584;2023-03-04T10:23:27;18.97;;;6.30;;
4452;SDS011;2239;48.152;11.584;2023-03-04T10:25:54;14.33;;;5.63;;
4452;SDS011;2239;48.152;11.584;2023-03-04T10:33:33;14.23;;;5.47;;
4452;SDS011;2239;48.152;11.584;2023-03-04T10:38:38;15.37;;;5.10;;
4452;SDS011;2239;48.152;11.584;2023-03-04T10:41:13;19.70;;;5.13;;
4452;SDS011;2239;48.152;11.584;2023-03-04T10:43:48;26.17;;;5.80;;
4452;SDS011;2239;48.152;11.584;2023-03-04T10:46:26;15.87;;;7.43;;
4452;SDS011;2239;48.152;11.584;2023-03-04T10:48:52;15.70;;;4.77;;
4452;SDS011;2239;48.152;11.584;2023-03-04T10:51:19;13.87;;;5.17;;
4452;SDS011;2239;48.152;11.584;2023-03-04T10:53:47;17.40;;;4.53;;
4452;SDS011;2239;48.152;11.584;2023-03-04T10:56:36;9.97;;;3.97;;
4452;SDS011;2239;48.152;11.584;2023-03-04T11:02:00;12.37;;;5.03;;
4452;SDS011;2239;48.152;11.584;2023-03-04T11:07:17;13.30;;;4.80;;
4452;SDS011;2239;48.152;11.584;2023-03-04T11:09:44;12.07;;;4.57;;
4452;SDS011;2239;48.152;11.584;2023-03-04T11:12:11;13.80;;;5.10;;
4452;SDS011;2239;48.152;11.584;2023-03-04T11:14:50;12.73;;;4.83;;
4452;SDS011;2239;48.152;11.584;2023-03-04T11:17:39;12.40;;;5.60;;
4452;SDS011;2239;48.152;11.584;2023-03-04T11:20:16;12.60;;;5.50;;
4452;SDS011;2239;48.152;11.584;2023-03-04T11:22:52;17.77;;;5.40;;
4452;SDS011;2239;48.152;11.584;2023-03-04T11:25:28;12.90;;;4.40;;
4452;SDS011;2239;48.152;11.584;2023-03-04T11:31:21;15.77;;;6.33;;
4452;SDS011;2239;48.152;11.584;2023-03-04T11:39:35;9.53;;;5.80;;
4452;SDS011;2239;48.152;11.584;2023-03-04T11:45:04;15.00;;;5.37;;
4452;SDS011;2239;48.152;11.584;2023-03-04T11:47:41;18.10;;;7.00;;
4452;SDS011;2239;48.152;11.584;2023-03-04T11:50:20;19.87;;;6.23;;
4452;SDS011;2239;48.152;11.584;2023-03-04T11:58:42;14.13;;;5.70;;
4452;SDS011;2239;48.152;11.584;2023-03-04T12:01:27;17.20;;;5.23;;
4452;SDS011;2239;48.152;11.584;2023-03-04T12:31:19;15.77;;;6.13;;
4452;SDS011;2239;48.152;11.584;2023-03-04T12:34:45;11.83;;;4.20;;
4452;SDS011;2239;48.152;11.584;2023-03-04T12:37:08;14.77;;;5.10;;
4452;SDS011;2239;48.152;11.584;2023-03-04T12:39:50;17.33;;;5.33;;
4452;SDS011;2239;48.152;11.584;2023-03-04T12:42:39;13.50;;;4.70;;
4452;SDS011;2239;48.152;11.584;2023-03-04T12:48:04;17.77;;;5.50;;
4452;SDS011;2239;48.152;11.584;2023-03-04T12:56:18;13.83;;;5.47;;
4452;SDS011;2239;48.152;11.584;2023-03-04T12:58:48;11.23;;;3.97;;
4452;SDS011;2239;48.152;11.584;2023-03-04T13:01:21;9.73;;;3.90;;
4452;SDS011;2239;48.152;11.584;2023-03-04T13:06:29;8.97;;;5.07;;
4452;SDS011;2239;48.152;11.584;2023-03-04T13:09:03;11.53;;;4.73;;
4452;SDS011;2239;48.152;11.584;2023-03-04T13:11:39;14.83;;;3.97;;
4452;SDS011;2239;48.152;11.584;2023-03-04T13:22:32;9.17;;;3.37;;
4452;SDS011;2239;48.152;11.584;2023-03-04T13:43:39;9.33;;;4.60;;
4452;SDS011;2239;48.152;11.584;2023-03-04T13:49:04;11.83;;;4.67;;
4452;SDS011;2239;48.152;11.584;2023-03-04T13:59:40;10.23;;;4.13;;
4452;SDS011;2239;48.152;11.584;2023-03-04T14:04:41;8.63;;;3.23;;
4452;SDS011;2239;48.152;11.584;2023-03-04T14:07:16;15.53;;;4.50;;
4452;SDS011;2239;48.152;11.584;2023-03-04T14:12:19;11.93;;;5.67;;
4452;SDS011;2239;48.152;11.584;2023-03-04T14:14:53;5.97;;;3.10;;
4452;SDS011;2239;48.152;11.584;2023-03-04T14:17:21;11.00;;;3.73;;
4452;SDS011;2239;48.152;11.584;2023-03-04T14:19:50;15.10;;;5.13;;
4452;SDS011;2239;48.152;11.584;2023-03-04T14:22:27;10.57;;;4.50;;
4452;SDS011;2239;48.152;11.584;2023-03-04T14:27:43;11.97;;;3.00;;
4452;SDS011;2239;48.152;11.584;2023-03-04T14:30:23;8.60;;;2.33;;
4452;SDS011;2239;48.152;11.584;2023-03-04T14:32:51;3.37;;;2.37;;
4452;SDS011;2239;48.152;11.584;2023-03-04T14:35:22;6.37;;;2.60;;
4452;SDS011;2239;48.152;11.584;2023-03-04T14:38:00;5.40;;;2.97;;
4452;SDS011;2239;48.152;11.584;2023-03-04T14:40:31;7.07;;;2.97;;
4452;SDS011;2239;48.152;11.584;2023-03-04T14:43:02;10.87;;;2.50;;
4452;SDS011;2239;48.152;11.584;2023-03-04T14:45:48;7.70;;;3.40;;
4452;SDS011;2239;48.152;11.584;2023-03-04T14:48:21;4.87;;;2.00;;
4452;SDS011;2239;48.152;11.584;2023-03-04T14:50:56;9.13;;;3.27;;
4452;SDS011;2239;48.152;11.584;2023-03-04T14:53:23;7.00;;;2.73;;
4452;SDS011;2239;48.152;11.584;2023-03-04T14:58:27;8.47;;;3.57;;
4452;SDS011;2239;48.152;11.584;2023-03-04T15:03:38;6.00;;;3.00;;
4452;SDS011;2239;48.152;11.584;2023-03-04T15:06:38;8.17;;;3.40;;
4452;SDS011;2239;48.152;11.584;2023-03-04T15:08:58;7.43;;;2.80;;
4452;SDS011;2239;48.152;11.584;2023-03-04T15:11:30;4.40;;;2.67;;
4452;SDS011;2239;48.152;11.584;2023-03-04T15:14:15;4.97;;;2.30;;
4452;SDS011;2239;48.152;11.584;2023-03-04T15:20:24;5.77;;;2.00;;
4452;SDS011;2239;48.152;11.584;2023-03-04T15:25:17;2.73;;;2.10;;
4452;SDS011;2239;48.152;11.584;2023-03-04T15:27:43;3.37;;;1.70;;
4452;SDS011;2239;48.152;11.584;2023-03-04T15:30:18;7.00;;;2.53;;
4452;SDS011;2239;48.152;11.584;2023-03-04T15:32:48;5.03;;;1.80;;
4452;SDS011;2239;48.152;11.584;2023-03-04T15:35:15;3.97;;;2.20;;
4452;SDS011;2239;48.152;11.584;2023-03-04T15:37:42;10.23;;;2.37;;
4452;SDS011;2239;48.152;11.584;2023-03-04T15:40:16;6.10;;;2.80;;
4452;SDS011;2239;48.152;11.584;2023-03-04T15:42:48;2.87;;;1.60;;
4452;SDS011;2239;48.152;11.584;2023-03-04T15:45:21;9.43;;;3.03;;
4452;SDS011;2239;48.152;11.584;2023-03-04T15:47:49;6.97;;;1.88;;
4452;SDS011;2239;48.152;11.584;2023-03-04T15:50:18;7.47;;;3.03;;
4452;SDS011;2239;48.152;11.584;2023-03-04T15:52:45;6.60;;;2.17;;
4452;SDS011;2239;48.152;11.584;2023-03-04T15:55:15;4.60;;;2.35;;
4452;SDS011;2239;48.152;11.584;2023-03-04T15:57:43;3.00;;;1.40;;
4452;SDS011;2239;48.152;11.584;2023-03-04T16:00:11;8.15;;;3.20;;
4452;SDS011;2239;48.152;11.584;2023-03-04T16:02:38;9.77;;;3.20;;
4452;SDS011;2239;48.152;11.584;2023-03-04T16:05:04;4.87;;;2.93;;
4452;SDS011;2239;48.152;11.584;2023-03-04T16:07:31;6.75;;;2.38;;
4452;SDS011;2239;48.152;11.584;2023-03-04T16:09:58;3.90;;;2.03;;
4452;SDS011;2239;48.152;11.584;2023-03-04T16:12:29;6.80;;;2.50;;
4452;SDS011;2239;48.152;11.584;2023-03-04T16:14:56;4.00;;;1.88;;
4452;SDS011;2239;48.152;11.584;2023-03-04T16:17:21;4.57;;;2.00;;
4452;SDS011;2239;48.152;11.584;2023-03-04T16:19:47;3.57;;;2.00;;
4452;SDS011;2239;48.152;11.584;2023-03-04T16:22:16;5.53;;;1.77;;
4452;SDS011;2239;48.152;11.584;2023-03-04T16:24:48;6.57;;;2.45;;
4452;SDS011;2239;48.152;11.584;2023-03-04T16:27:14;6.20;;;2.97;;
4452;SDS011;2239;48.152;11.584;2023-03-04T16:29:42;4.45;;;2.38;;
4452;SDS011;2239;48.152;11.584;2023-03-04T16:32:09;3.22;;;2.00;;
4452;SDS011;2239;48.152;11.584;2023-03-04T16:34:35;8.85;;;2.50;;
4452;SDS011;2239;48.152;11.584;2023-03-04T16:37:02;6.40;;;2.43;;
4452;SDS011;2239;48.152;11.584;2023-03-04T16:39:30;2.67;;;1.42;;
4452;SDS011;2239;48.152;11.584;2023-03-04T16:41:57;4.82;;;2.17;;
4452;SDS011;2239;48.152;11.584;2023-03-04T16:44:22;1.33;;;1.23;;
4452;SDS011;2239;48.152;11.584;2023-03-04T16:46:48;3.50;;;2.43;;
4452;SDS011;2239;48.152;11.584;2023-03-04T16:49:13;4.53;;;2.50;;
4452;SDS011;2239;48.152;11.584;2023-03-04T16:51:40;4.50;;;3.10;;
4452;SDS011;2239;48.152;11.584;2023-03-04T16:54:15;5.45;;;2.20;;
4452;SDS011;2239;48.152;11.584;2023-03-04T16:56:54;4.07;;;2.58;;
4452;SDS011;2239;48.152;11.584;2023-03-04T16:59:20;11.38;;;2.17;;
4452;SDS011;2239;48.152;11.584;2023-03-04T17:01:45;4.80;;;1.27;;
4452;SDS011;2239;48.152;11.584;2023-03-04T17:04:12;5.68;;;1.50;;
4452;SDS011;2239;48.152;11.584;2023-03-04T17:06:37;4.20;;;2.40;;
4452;SDS011;2239;48.152;11.584;2023-03-04T17:09:06;3.00;;;0.98;;
4452;SDS011;2239;48.152;11.584;2023-03-04T17:11:34;4.45;;;2.97;;
4452;SDS011;2239;48.152;11.584;2023-03-04T17:14:00;1.77;;;0.75;;
4452;SDS011;2239;48.152;11.584;2023-03-04T17:16:25;0.70;;;0.70;;
4452;SDS011;2239;48.152;11.584;2023-03-04T17:18:51;2.60;;;1.57;;
4452;SDS011;2239;48.152;11.584;2023-03-04T17:21:19;0.70;;;0.70;;
4452;SDS011;2239;48.152;11.584;2023-03-04T17:23:46;2.65;;;1.42;;